createdAt,value
2022-10-03T00:01:52.352Z,2.30
2022-10-03T00:04:32.949Z,2.05
2022-10-03T00:07:11.910Z,1.75
2022-10-03T00:10:03.170Z,2.53
2022-10-03T00:13:02.100Z,2.45
2022-10-03T00:15:35.722Z,2.20
2022-10-03T00:18:18.420Z,2.33
2022-10-03T00:21:03.208Z,1.90
2022-10-03T00:23:44.151Z,1.75
2022-10-03T00:26:32.753Z,2.10
2022-10-03T00:29:24.622Z,2.78
2022-10-03T00:32:03.050Z,2.33
2022-10-03T00:34:41.014Z,2.92
2022-10-03T00:37:22.172Z,2.15
2022-10-03T00:40:28.582Z,2.30
2022-10-03T00:43:32.289Z,2.08
2022-10-03T00:46:41.911Z,1.95
2022-10-03T00:49:37.650Z,1.85
2022-10-03T00:52:36.430Z,1.38
2022-10-03T00:55:15.986Z,2.03
2022-10-03T00:58:20.321Z,2.05
2022-10-03T01:00:51.701Z,1.55
2022-10-03T01:03:35.014Z,1.73
2022-10-03T01:06:17.249Z,1.58
2022-10-03T01:09:04.342Z,1.40
2022-10-03T01:11:46.980Z,1.45
2022-10-03T01:14:33.573Z,1.73
2022-10-03T01:17:12.446Z,1.63
2022-10-03T01:20:08.253Z,1.38
2022-10-03T01:22:54.573Z,1.67
2022-10-03T01:25:38.234Z,1.30
2022-10-03T01:28:57.593Z,1.50
2022-10-03T01:31:34.534Z,1.58
2022-10-03T01:34:11.693Z,2.00
2022-10-03T01:36:52.784Z,1.70
2022-10-03T01:39:27.312Z,1.80
2022-10-03T01:42:01.744Z,1.35
2022-10-03T01:44:40.803Z,2.00
2022-10-03T01:47:20.453Z,2.30
2022-10-03T01:49:56.425Z,1.67
2022-10-03T01:52:33.684Z,1.35
2022-10-03T01:55:08.615Z,2.00
2022-10-03T01:57:43.104Z,1.63
2022-10-03T02:00:16.083Z,1.75
2022-10-03T02:02:48.043Z,1.65
2022-10-03T02:05:23.132Z,1.95
2022-10-03T02:07:56.510Z,1.65
2022-10-03T02:10:36.213Z,1.23
2022-10-03T02:13:12.654Z,2.05
2022-10-03T02:15:58.157Z,1.20
2022-10-03T02:18:38.483Z,1.40
2022-10-03T02:21:14.839Z,1.52
2022-10-03T02:23:46.059Z,1.65
2022-10-03T02:27:01.243Z,1.48
2022-10-03T02:29:51.644Z,1.63
2022-10-03T02:33:08.424Z,1.42
2022-10-03T02:35:57.732Z,1.13
2022-10-03T02:38:50.947Z,0.80
2022-10-03T02:41:42.003Z,1.13
2022-10-03T02:44:49.564Z,1.30
2022-10-03T02:48:03.944Z,1.17
2022-10-03T02:51:07.265Z,1.10
2022-10-03T02:54:06.741Z,1.20
2022-10-03T02:57:03.474Z,1.98
2022-10-03T02:59:57.333Z,1.33
2022-10-03T03:02:49.662Z,1.23
2022-10-03T03:05:43.774Z,1.50
2022-10-03T03:08:50.466Z,1.50
2022-10-03T03:11:54.592Z,1.42
2022-10-03T03:14:57.992Z,1.58
2022-10-03T03:17:35.352Z,1.60
2022-10-03T03:20:39.752Z,1.50
2022-10-03T03:23:36.401Z,2.45
2022-10-03T03:26:30.523Z,1.40
2022-10-03T03:29:09.763Z,1.13
2022-10-03T03:31:47.048Z,1.17
2022-10-03T03:34:23.183Z,1.15
2022-10-03T03:37:06.534Z,1.27
2022-10-03T03:39:48.427Z,1.20
2022-10-03T03:42:45.392Z,1.77
2022-10-03T03:45:31.231Z,1.33
2022-10-03T03:48:21.888Z,1.30
2022-10-03T03:51:07.697Z,1.13
2022-10-03T03:54:19.633Z,1.75
2022-10-03T03:57:12.637Z,1.80
2022-10-03T03:59:51.859Z,1.58
2022-10-03T04:02:34.474Z,1.45
2022-10-03T04:05:15.248Z,1.20
2022-10-03T04:07:55.256Z,1.05
2022-10-03T04:10:38.527Z,1.17
2022-10-03T04:13:37.206Z,1.63
2022-10-03T04:16:41.330Z,1.20
2022-10-03T04:19:19.357Z,1.60
2022-10-03T04:22:12.461Z,1.20
2022-10-03T04:25:05.631Z,1.70
2022-10-03T04:28:11.007Z,1.38
2022-10-03T04:30:55.457Z,1.33
2022-10-03T04:33:32.985Z,1.25
2022-10-03T04:36:36.384Z,1.40
2022-10-03T04:39:10.762Z,1.33
2022-10-03T04:41:49.874Z,1.27
2022-10-03T04:44:34.020Z,1.55
2022-10-03T04:47:08.391Z,1.27
2022-10-03T04:49:42.854Z,1.10
2022-10-03T04:52:20.307Z,1.42
2022-10-03T04:54:57.378Z,1.83
2022-10-03T04:57:31.992Z,1.33
2022-10-03T05:00:14.682Z,1.35
2022-10-03T05:02:53.164Z,1.40
2022-10-03T05:05:48.619Z,1.27
2022-10-03T05:08:29.233Z,1.60
2022-10-03T05:11:19.114Z,2.35
2022-10-03T05:14:05.805Z,1.80
2022-10-03T05:16:43.169Z,1.90
2022-10-03T05:19:41.960Z,2.03
2022-10-03T05:22:20.480Z,2.55
2022-10-03T05:24:56.419Z,1.77
2022-10-03T05:27:35.752Z,2.63
2022-10-03T05:30:07.935Z,2.42
2022-10-03T05:32:41.953Z,2.35
2022-10-03T05:35:51.095Z,2.13
2022-10-03T05:38:39.957Z,2.05
2022-10-03T05:41:20.620Z,1.70
2022-10-03T05:44:01.603Z,1.85
2022-10-03T05:46:46.176Z,1.77
2022-10-03T05:49:37.348Z,2.00
2022-10-03T05:52:32.798Z,1.52
2022-10-03T05:55:13.193Z,1.80
2022-10-03T05:58:02.871Z,1.38
2022-10-03T06:00:46.191Z,1.77
2022-10-03T06:03:50.632Z,1.92
2022-10-03T06:06:24.837Z,1.73
2022-10-03T06:09:16.592Z,1.90
2022-10-03T06:12:03.676Z,1.60
2022-10-03T06:17:43.264Z,1.60
2022-10-03T06:20:36.576Z,2.03
2022-10-03T06:23:31.837Z,1.92
2022-10-03T06:26:36.708Z,2.03
2022-10-03T06:29:42.947Z,2.00
2022-10-03T06:32:52.482Z,1.63
2022-10-03T06:35:48.242Z,2.13
2022-10-03T06:38:48.320Z,2.10
2022-10-03T06:42:07.913Z,2.83
2022-10-03T06:45:02.756Z,2.50
2022-10-03T06:47:57.031Z,2.28
2022-10-03T06:50:42.583Z,2.05
2022-10-03T06:53:39.753Z,2.40
2022-10-03T06:56:46.309Z,2.85
2022-10-03T06:59:53.335Z,4.40
2022-10-03T07:03:04.304Z,3.92
2022-10-03T07:06:13.919Z,3.50
2022-10-03T07:09:13.872Z,4.20
2022-10-03T07:12:17.995Z,4.25
2022-10-03T07:15:15.150Z,4.32
2022-10-03T07:18:13.102Z,4.35
2022-10-03T07:21:20.235Z,4.05
2022-10-03T07:24:22.207Z,4.78
2022-10-03T07:27:12.265Z,4.15
2022-10-03T07:30:03.752Z,4.82
2022-10-03T07:33:14.029Z,3.53
2022-10-03T07:36:05.886Z,2.65
2022-10-03T07:39:02.331Z,3.20
2022-10-03T07:42:12.556Z,3.53
2022-10-03T07:45:04.265Z,2.67
2022-10-03T07:48:23.370Z,2.30
2022-10-03T07:50:59.584Z,2.45
2022-10-03T07:54:02.671Z,2.10
2022-10-03T07:57:04.282Z,2.10
2022-10-03T08:00:01.723Z,2.17
2022-10-03T08:03:12.791Z,1.60
2022-10-03T08:06:14.446Z,2.05
2022-10-03T08:09:17.597Z,1.58
2022-10-03T08:12:24.170Z,1.50
2022-10-03T08:15:12.217Z,1.88
2022-10-03T08:18:16.589Z,2.10
2022-10-03T08:20:58.405Z,1.90
2022-10-03T08:23:52.707Z,1.70
2022-10-03T08:26:31.273Z,2.17
2022-10-03T08:29:26.655Z,1.65
2022-10-03T08:32:29.594Z,2.17
2022-10-03T08:35:26.265Z,3.25
2022-10-03T08:38:37.178Z,2.03
2022-10-03T08:41:56.399Z,2.25
2022-10-03T08:44:50.116Z,3.50
2022-10-03T08:47:45.430Z,2.45
2022-10-03T08:50:41.377Z,2.97
2022-10-03T08:53:47.580Z,2.60
2022-10-03T08:56:18.198Z,3.45
2022-10-03T08:59:10.826Z,2.58
2022-10-03T09:02:30.355Z,1.88
2022-10-03T09:05:36.545Z,2.90
2022-10-03T09:08:40.342Z,2.55
2022-10-03T09:11:38.331Z,1.90
2022-10-03T09:14:40.887Z,2.60
2022-10-03T09:17:45.069Z,3.08
2022-10-03T09:20:49.466Z,2.55
2022-10-03T09:23:42.440Z,2.72
2022-10-03T09:26:49.224Z,2.33
2022-10-03T09:29:39.174Z,2.33
2022-10-03T09:32:48.570Z,1.92
2022-10-03T09:35:53.490Z,1.98
2022-10-03T09:39:01.621Z,1.55
2022-10-03T09:42:07.957Z,2.08
2022-10-03T09:45:10.069Z,2.05
2022-10-03T09:48:08.972Z,2.60
2022-10-03T09:51:09.476Z,2.00
2022-10-03T09:54:18.976Z,2.55
2022-10-03T09:57:38.617Z,2.30
2022-10-03T10:00:22.513Z,2.03
2022-10-03T10:03:16.999Z,1.95
2022-10-03T10:06:11.520Z,2.38
2022-10-03T10:09:15.287Z,2.20
2022-10-03T10:12:19.180Z,1.92
2022-10-03T10:15:26.936Z,2.00
2022-10-03T10:18:27.345Z,2.35
2022-10-03T10:21:37.615Z,2.28
2022-10-03T10:24:48.738Z,2.20
2022-10-03T10:27:48.576Z,2.55
2022-10-03T10:30:26.906Z,1.83
2022-10-03T10:33:36.255Z,2.25
2022-10-03T10:36:37.417Z,2.28
2022-10-03T10:39:36.238Z,1.75
2022-10-03T10:43:03.705Z,1.73
2022-10-03T10:45:59.385Z,1.60
2022-10-03T10:49:12.165Z,1.40
2022-10-03T10:52:21.997Z,1.63
2022-10-03T10:55:46.379Z,1.40
2022-10-03T10:59:01.959Z,1.58
2022-10-03T11:02:15.291Z,1.92
2022-10-03T11:05:22.901Z,2.00
2022-10-03T11:08:35.055Z,1.67
2022-10-03T11:11:44.756Z,1.65
2022-10-03T11:14:51.775Z,1.70
2022-10-03T11:18:08.649Z,1.92
2022-10-03T11:21:28.132Z,1.90
2022-10-03T11:24:31.725Z,1.80
2022-10-03T11:27:49.817Z,2.20
2022-10-03T11:30:54.738Z,2.22
2022-10-03T11:33:59.483Z,2.03
2022-10-03T11:37:02.599Z,1.58
2022-10-03T11:39:42.224Z,1.73
2022-10-03T11:42:19.881Z,2.03
2022-10-03T11:44:53.819Z,1.60
2022-10-03T11:47:55.379Z,2.15
2022-10-03T11:50:39.715Z,2.00
2022-10-03T11:53:18.527Z,1.70
2022-10-03T11:55:51.740Z,1.67
2022-10-03T11:58:34.037Z,1.73
2022-10-03T12:01:21.640Z,1.42
2022-10-03T12:03:57.032Z,1.90
2022-10-03T12:07:17.524Z,1.48
2022-10-03T12:10:14.939Z,1.73
2022-10-03T12:12:46.251Z,1.63
2022-10-03T12:15:28.287Z,1.40
2022-10-03T12:18:05.767Z,1.88
2022-10-03T12:20:58.571Z,2.25
2022-10-03T12:23:43.610Z,2.00
2022-10-03T12:26:18.172Z,1.92
2022-10-03T12:28:52.309Z,1.67
2022-10-03T12:31:26.486Z,1.52
2022-10-03T12:34:03.911Z,1.77
2022-10-03T12:36:42.022Z,1.35
2022-10-03T12:39:24.619Z,2.22
2022-10-03T12:42:16.506Z,1.77
2022-10-03T12:44:52.408Z,1.80
2022-10-03T12:47:51.126Z,2.05
2022-10-03T12:50:34.559Z,1.60
2022-10-03T12:53:31.868Z,1.83
2022-10-03T12:58:53.221Z,1.63
2022-10-03T13:01:29.385Z,1.67
2022-10-03T13:04:01.249Z,1.35
2022-10-03T13:07:02.813Z,1.55
2022-10-03T13:09:56.786Z,1.80
2022-10-03T13:12:37.020Z,1.67
2022-10-03T13:15:44.798Z,2.03
2022-10-03T13:18:27.536Z,1.60
2022-10-03T13:21:10.252Z,1.30
2022-10-03T13:23:54.532Z,1.63
2022-10-03T13:26:28.760Z,1.40
2022-10-03T13:29:34.842Z,1.50
2022-10-03T13:32:22.847Z,2.40
2022-10-03T13:35:40.087Z,1.20
2022-10-03T13:38:41.132Z,1.40
2022-10-03T13:41:24.423Z,2.05
2022-10-03T13:43:59.535Z,1.23
2022-10-03T13:46:34.350Z,1.48
2022-10-03T13:49:11.301Z,1.17
2022-10-03T13:51:54.123Z,1.30
2022-10-03T13:54:39.531Z,1.52
2022-10-03T13:57:15.772Z,1.40
2022-10-03T14:00:08.534Z,1.60
2022-10-03T14:03:17.506Z,1.63
2022-10-03T14:06:17.122Z,1.20
2022-10-03T14:09:19.361Z,1.30
2022-10-03T14:11:54.182Z,1.30
2022-10-03T14:15:00.533Z,1.50
2022-10-03T14:17:35.861Z,1.65
2022-10-03T14:20:19.352Z,1.45
2022-10-03T14:23:05.913Z,1.38
2022-10-03T14:25:41.319Z,1.55
2022-10-03T14:28:16.977Z,1.77
2022-10-03T14:31:05.897Z,1.58
2022-10-03T14:33:43.921Z,1.35
2022-10-03T14:36:36.898Z,1.85
2022-10-03T14:39:33.203Z,1.23
2022-10-03T14:42:37.669Z,1.53
2022-10-03T14:45:10.130Z,1.30
2022-10-03T14:47:40.784Z,1.35
2022-10-03T14:50:17.842Z,1.60
2022-10-03T14:52:50.351Z,1.70
2022-10-03T14:55:21.342Z,2.00
2022-10-03T14:58:11.411Z,1.45
2022-10-03T15:00:43.972Z,1.42
2022-10-03T15:03:33.800Z,1.75
2022-10-03T15:06:35.189Z,1.60
2022-10-03T15:09:09.989Z,1.70
2022-10-03T15:11:45.771Z,1.90
2022-10-03T15:14:15.609Z,1.40
2022-10-03T15:16:48.167Z,1.50
2022-10-03T15:19:19.038Z,1.05
2022-10-03T15:21:48.838Z,1.63
2022-10-03T15:24:25.084Z,1.33
2022-10-03T15:27:01.606Z,1.50
2022-10-03T15:29:33.479Z,1.67
2022-10-03T15:32:03.428Z,1.40
2022-10-03T15:34:34.107Z,1.42
2022-10-03T15:37:10.989Z,1.20
2022-10-03T15:39:43.473Z,1.75
2022-10-03T15:42:23.309Z,1.27
2022-10-03T15:44:55.857Z,1.40
2022-10-03T15:47:27.571Z,1.95
2022-10-03T15:50:00.331Z,1.45
2022-10-03T15:52:35.867Z,1.60
2022-10-03T15:55:11.821Z,1.20
2022-10-03T15:57:46.139Z,1.48
2022-10-03T16:00:24.978Z,1.92
2022-10-03T16:03:03.068Z,1.45
2022-10-03T16:05:31.466Z,1.40
2022-10-03T16:08:05.853Z,1.33
2022-10-03T16:10:39.295Z,1.30
2022-10-03T16:13:22.263Z,1.00
2022-10-03T16:16:10.376Z,1.30
2022-10-03T16:18:52.705Z,1.50
2022-10-03T16:21:38.210Z,1.60
2022-10-03T16:24:08.616Z,2.22
2022-10-03T16:26:48.425Z,1.58
2022-10-03T16:29:22.895Z,1.83
2022-10-03T16:31:56.015Z,2.05
2022-10-03T16:34:26.917Z,1.90
2022-10-03T16:36:55.489Z,2.53
2022-10-03T16:39:26.937Z,2.40
2022-10-03T16:41:55.768Z,2.70
2022-10-03T16:44:34.348Z,2.50
2022-10-03T16:47:05.737Z,2.13
2022-10-03T16:50:00.477Z,2.33
2022-10-03T16:52:34.718Z,2.40
2022-10-03T16:55:07.654Z,2.80
2022-10-03T16:57:44.697Z,3.08
2022-10-03T17:00:21.706Z,2.80
2022-10-03T17:02:52.354Z,2.58
2022-10-03T17:05:20.918Z,2.88
2022-10-03T17:07:51.640Z,2.10
2022-10-03T17:10:34.527Z,2.47
2022-10-03T17:13:12.980Z,2.33
2022-10-03T17:15:49.537Z,2.50
2022-10-03T17:18:26.337Z,2.47
2022-10-03T17:20:57.026Z,2.33
2022-10-03T17:23:33.265Z,2.40
2022-10-03T17:26:06.044Z,2.47
2022-10-03T17:28:41.078Z,3.10
2022-10-03T17:31:37.203Z,3.60
2022-10-03T17:34:12.896Z,5.47
2022-10-03T17:37:07.795Z,7.80
2022-10-03T17:39:54.492Z,7.22
2022-10-03T17:42:41.756Z,6.75
2022-10-03T17:45:33.690Z,6.93
2022-10-03T17:48:10.625Z,6.38
2022-10-03T17:51:01.087Z,6.82
2022-10-03T17:53:30.969Z,7.43
2022-10-03T17:56:04.338Z,6.55
2022-10-03T17:58:33.601Z,6.93
2022-10-03T18:01:10.294Z,6.50
2022-10-03T18:03:47.217Z,9.18
2022-10-03T18:06:46.085Z,10.13
2022-10-03T18:09:29.133Z,9.45
2022-10-03T18:12:12.285Z,7.60
2022-10-03T18:14:50.777Z,6.80
2022-10-03T18:17:24.224Z,7.00
2022-10-03T18:20:11.341Z,6.80
2022-10-03T18:22:48.449Z,5.93
2022-10-03T18:25:47.770Z,5.95
2022-10-03T18:28:25.270Z,5.57
2022-10-03T18:30:57.787Z,5.22
2022-10-03T18:33:33.707Z,4.95
2022-10-03T18:36:11.948Z,4.40
2022-10-03T18:38:43.961Z,4.30
2022-10-03T18:41:16.288Z,4.40
2022-10-03T18:43:47.620Z,4.15
2022-10-03T18:46:20.054Z,4.32
2022-10-03T18:49:28.240Z,4.63
2022-10-03T18:51:51.026Z,5.32
2022-10-03T18:54:35.552Z,4.35
2022-10-03T18:57:08.345Z,4.13
2022-10-03T18:59:53.091Z,4.30
2022-10-03T19:02:27.158Z,3.60
2022-10-03T19:05:00.664Z,3.95
2022-10-03T19:07:33.224Z,3.72
2022-10-03T19:10:22.281Z,4.13
2022-10-03T19:12:56.166Z,3.75
2022-10-03T19:15:39.045Z,3.88
2022-10-03T19:18:29.593Z,3.03
2022-10-03T19:21:03.847Z,3.38
2022-10-03T19:23:40.065Z,3.78
2022-10-03T19:26:18.969Z,3.40
2022-10-03T19:28:49.261Z,3.45
2022-10-03T19:31:23.853Z,3.33
2022-10-03T19:34:04.212Z,3.07
2022-10-03T19:36:35.408Z,3.10
2022-10-03T19:39:05.820Z,3.20
2022-10-03T19:41:42.399Z,3.55
2022-10-03T19:47:06.883Z,3.00
2022-10-03T19:49:53.226Z,3.35
2022-10-03T19:52:30.051Z,3.10
2022-10-03T19:55:05.203Z,3.42
2022-10-03T19:57:43.998Z,3.53
2022-10-03T20:00:28.383Z,3.50
2022-10-03T20:03:16.943Z,2.88
2022-10-03T20:05:53.884Z,3.13
2022-10-03T20:08:33.788Z,2.95
2022-10-03T20:11:22.583Z,3.05
2022-10-03T20:13:54.000Z,3.35
2022-10-03T20:16:25.593Z,2.80
2022-10-03T20:18:58.692Z,2.42
2022-10-03T20:21:29.357Z,3.65
2022-10-03T20:23:59.004Z,2.53
2022-10-03T20:26:35.154Z,2.83
2022-10-03T20:29:20.608Z,2.50
2022-10-03T20:31:50.158Z,2.80
2022-10-03T20:34:24.761Z,2.20
2022-10-03T20:37:02.417Z,2.67
2022-10-03T20:39:36.997Z,2.90
2022-10-03T20:42:11.255Z,3.10
2022-10-03T20:45:07.613Z,2.08
2022-10-03T20:47:49.025Z,2.72
2022-10-03T20:50:27.156Z,2.15
2022-10-03T20:52:58.952Z,2.95
2022-10-03T20:55:31.369Z,2.40
2022-10-03T20:58:21.214Z,2.00
2022-10-03T21:00:57.440Z,2.35
2022-10-03T21:03:33.703Z,2.60
2022-10-03T21:06:14.828Z,2.50
2022-10-03T21:08:43.794Z,2.55
2022-10-03T21:11:21.146Z,2.50
2022-10-03T21:13:54.143Z,2.60
2022-10-03T21:16:27.799Z,2.70
2022-10-03T21:19:00.612Z,2.67
2022-10-03T21:21:35.294Z,2.67
2022-10-03T21:24:12.230Z,2.60
2022-10-03T21:26:45.809Z,2.25
2022-10-03T21:29:29.208Z,2.20
2022-10-03T21:32:12.440Z,2.30
2022-10-03T21:34:47.227Z,2.63
2022-10-03T21:37:20.326Z,2.47
2022-10-03T21:40:02.428Z,1.83
2022-10-03T21:42:36.138Z,2.40
2022-10-03T21:45:20.865Z,2.20
2022-10-03T21:47:55.300Z,2.40
2022-10-03T21:50:44.966Z,2.20
2022-10-03T21:53:19.732Z,1.80
2022-10-03T21:56:09.501Z,2.20
2022-10-03T21:59:05.464Z,2.13
2022-10-03T22:01:40.291Z,2.13
2022-10-03T22:04:20.310Z,2.25
2022-10-03T22:06:55.629Z,2.45
2022-10-03T22:09:24.213Z,2.58
2022-10-03T22:11:56.029Z,1.80
2022-10-03T22:14:34.969Z,2.30
2022-10-03T22:17:12.165Z,2.85
2022-10-03T22:19:46.984Z,2.67
2022-10-03T22:22:26.362Z,2.80
2022-10-03T22:25:14.814Z,3.65
2022-10-03T22:27:51.636Z,3.83
2022-10-03T22:30:21.642Z,3.75
2022-10-03T22:33:03.701Z,3.72
2022-10-03T22:35:48.536Z,3.83
2022-10-03T22:38:18.017Z,4.57
2022-10-03T22:40:48.098Z,4.38
2022-10-03T22:43:16.734Z,4.15
2022-10-03T22:45:49.627Z,4.38
2022-10-03T22:48:23.018Z,3.67
2022-10-03T22:50:54.419Z,3.85
2022-10-03T22:53:28.790Z,3.25
2022-10-03T22:55:59.994Z,3.40
2022-10-03T22:58:31.000Z,3.60
2022-10-03T23:01:01.596Z,3.05
2022-10-03T23:03:32.873Z,2.70
2022-10-03T23:06:31.405Z,2.35
2022-10-03T23:09:09.125Z,2.40
2022-10-03T23:11:39.447Z,2.20
2022-10-03T23:14:15.208Z,2.53
2022-10-03T23:16:53.437Z,2.45
2022-10-03T23:19:34.212Z,2.85
2022-10-03T23:22:06.462Z,3.17
2022-10-03T23:24:40.906Z,2.38
2022-10-03T23:27:47.878Z,2.25
2022-10-03T23:30:45.694Z,1.70
2022-10-03T23:33:18.499Z,2.25
2022-10-03T23:35:48.494Z,2.40
2022-10-03T23:38:59.120Z,2.45
2022-10-03T23:42:05.703Z,2.05
2022-10-03T23:44:48.944Z,1.83
2022-10-03T23:47:19.937Z,2.40
2022-10-03T23:49:50.558Z,2.70
2022-10-03T23:52:23.646Z,2.67
2022-10-03T23:54:55.896Z,2.08
2022-10-03T23:57:29.987Z,1.90
2022-10-03T23:59:58.454Z,2.13
